Time;durP1;ratioP1;P1;durP2;ratioP2;P2;SDS_P1;SDS_P2;PMS_P1;PMS_P2;Temp;Humidity;BMP_temperature;BMP_pressure;BME280_temperature;BME280_humidity;BME280_pressure;Samples;Min_cycle;Max_cycle;Signal;HPM_P1;HPM_P2
2021/08/26 00:06:58;;;;;;;2.53;2.37;;;;;;;;;;5119905;28;20261;-61
2021/08/26 00:09:26;;;;;;;2.80;2.30;;;;;;;;;;5119702;28;20219;-62
2021/08/26 00:11:55;;;;;;;4.57;2.70;;;;;;;;;;5119542;28;20700;-62
2021/08/26 00:14:24;;;;;;;4.80;2.20;;;;;;;;;;5119692;28;20243;-62
2021/08/26 00:16:53;;;;;;;2.37;2.00;;;;;;;;;;5119608;28;20205;-62
2021/08/26 00:19:21;;;;;;;2.87;2.67;;;;;;;;;;5119487;28;20211;-62
2021/08/26 00:21:49;;;;;;;2.50;2.30;;;;;;;;;;5119439;28;20233;-62
2021/08/26 00:24:17;;;;;;;2.40;2.20;;;;;;;;;;5119381;27;20217;-62
2021/08/26 00:26:45;;;;;;;4.17;2.80;;;;;;;;;;5099078;28;20212;-62
2021/08/26 00:29:13;;;;;;;4.10;3.70;;;;;;;;;;5098893;28;20677;-62
2021/08/26 00:31:41;;;;;;;3.23;2.50;;;;;;;;;;5099027;28;20232;-62
2021/08/26 00:34:11;;;;;;;2.80;2.47;;;;;;;;;;5098559;28;20229;-62
2021/08/26 00:36:39;;;;;;;5.27;2.23;;;;;;;;;;5099145;28;20201;-62
2021/08/26 00:39:07;;;;;;;3.33;2.27;;;;;;;;;;5113346;28;20687;-62
2021/08/26 00:41:36;;;;;;;3.33;2.53;;;;;;;;;;5119320;28;20203;-62
2021/08/26 00:44:04;;;;;;;3.87;2.90;;;;;;;;;;5119186;28;20316;-62
2021/08/26 00:46:32;;;;;;;3.03;2.50;;;;;;;;;;5118894;28;20208;-62
2021/08/26 00:49:00;;;;;;;4.50;2.50;;;;;;;;;;5118892;28;20208;-62
2021/08/26 00:51:31;;;;;;;3.03;2.70;;;;;;;;;;5109875;28;20221;-62
2021/08/26 00:53:59;;;;;;;2.83;2.63;;;;;;;;;;5098708;28;20359;-62
2021/08/26 00:56:27;;;;;;;6.73;3.17;;;;;;;;;;5098508;28;20215;-64
2021/08/26 00:58:55;;;;;;;3.53;3.13;;;;;;;;;;5098456;28;20202;-64
2021/08/26 01:01:28;;;;;;;2.70;2.50;;;;;;;;;;5098292;28;20544;-62
2021/08/26 01:03:58;;;;;;;4.53;2.70;;;;;;;;;;5098234;28;20312;-62
2021/08/26 01:06:31;;;;;;;3.47;3.00;;;;;;;;;;5098667;28;20209;-62
2021/08/26 01:09:03;;;;;;;6.13;3.07;;;;;;;;;;5098448;28;20212;-62
2021/08/26 01:11:31;;;;;;;3.43;3.13;;;;;;;;;;5098386;28;20229;-62
2021/08/26 01:13:59;;;;;;;4.03;2.90;;;;;;;;;;5098128;28;20231;-62
2021/08/26 01:16:27;;;;;;;3.27;2.70;;;;;;;;;;5098137;28;20288;-64
2021/08/26 01:18:55;;;;;;;3.80;3.07;;;;;;;;;;5097597;28;20216;-64
2021/08/26 01:21:24;;;;;;;4.47;2.87;;;;;;;;;;5097844;28;20229;-64
2021/08/26 01:23:53;;;;;;;4.40;2.73;;;;;;;;;;5098240;28;20222;-62
2021/08/26 01:26:23;;;;;;;4.43;2.70;;;;;;;;;;5097894;28;20664;-64
2021/08/26 01:28:53;;;;;;;2.50;2.30;;;;;;;;;;5097965;28;20575;-64
2021/08/26 01:31:22;;;;;;;2.93;2.73;;;;;;;;;;5097872;28;20221;-64
2021/08/26 01:33:50;;;;;;;3.30;3.00;;;;;;;;;;5097690;28;20233;-64
2021/08/26 01:36:18;;;;;;;4.70;3.00;;;;;;;;;;5098080;28;20211;-62
2021/08/26 01:38:47;;;;;;;2.97;2.70;;;;;;;;;;5109433;28;20694;-61
2021/08/26 01:41:15;;;;;;;2.80;2.60;;;;;;;;;;5118284;28;20204;-62
2021/08/26 01:43:45;;;;;;;2.80;2.60;;;;;;;;;;5117994;28;20230;-61
2021/08/26 01:46:13;;;;;;;3.20;2.97;;;;;;;;;;5118315;28;20211;-62
2021/08/26 01:48:42;;;;;;;3.57;3.13;;;;;;;;;;5117960;28;20267;-64
2021/08/26 01:51:10;;;;;;;2.80;2.60;;;;;;;;;;5111540;28;20706;-64
2021/08/26 01:53:38;;;;;;;3.67;2.90;;;;;;;;;;5097735;28;20210;-62
2021/08/26 01:56:06;;;;;;;3.40;3.10;;;;;;;;;;5098075;28;20219;-62
2021/08/26 01:58:34;;;;;;;8.20;2.57;;;;;;;;;;5097784;28;20213;-62
2021/08/26 02:01:03;;;;;;;3.50;2.80;;;;;;;;;;5097571;28;20552;-62
2021/08/26 02:03:31;;;;;;;3.03;2.83;;;;;;;;;;5097315;28;20227;-62
2021/08/26 02:06:00;;;;;;;4.37;3.23;;;;;;;;;;5098095;28;20205;-62
2021/08/26 02:08:27;;;;;;;2.97;2.67;;;;;;;;;;5097635;28;20205;-62
2021/08/26 02:10:55;;;;;;;4.53;2.90;;;;;;;;;;5097630;28;20201;-62
2021/08/26 02:13:23;;;;;;;3.13;2.50;;;;;;;;;;5097418;28;20688;-62
2021/08/26 02:15:51;;;;;;;4.10;3.30;;;;;;;;;;5097394;28;20629;-62
2021/08/26 02:18:24;;;;;;;5.10;2.80;;;;;;;;;;5097611;28;20205;-62
2021/08/26 02:20:52;;;;;;;3.53;3.23;;;;;;;;;;5097327;28;20235;-63
2021/08/26 02:23:20;;;;;;;2.80;2.60;;;;;;;;;;5097608;28;20209;-62
2021/08/26 02:25:48;;;;;;;3.17;2.83;;;;;;;;;;5105671;28;20288;-62
2021/08/26 02:28:16;;;;;;;3.27;2.80;;;;;;;;;;5101350;28;20220;-62
2021/08/26 02:30:44;;;;;;;3.07;2.77;;;;;;;;;;5101230;28;20224;-62
2021/08/26 02:33:12;;;;;;;3.93;2.67;;;;;;;;;;5101316;28;20226;-62
2021/08/26 02:35:41;;;;;;;2.80;2.60;;;;;;;;;;5101120;28;20229;-62
2021/08/26 02:38:09;;;;;;;2.77;2.40;;;;;;;;;;5107663;28;20197;-62
2021/08/26 02:40:37;;;;;;;3.40;2.63;;;;;;;;;;5121572;27;20625;-62
2021/08/26 02:43:05;;;;;;;3.23;2.63;;;;;;;;;;5121408;28;20625;-62
2021/08/26 02:45:33;;;;;;;2.70;2.50;;;;;;;;;;5121569;28;20231;-62
2021/08/26 02:48:01;;;;;;;4.23;2.60;;;;;;;;;;5121249;27;20216;-63
2021/08/26 02:50:29;;;;;;;4.13;3.30;;;;;;;;;;5120284;28;20295;-63
2021/08/26 02:52:58;;;;;;;2.87;2.67;;;;;;;;;;5101067;28;20226;-62
2021/08/26 02:55:26;;;;;;;2.90;2.70;;;;;;;;;;5100660;28;20229;-64
2021/08/26 02:57:54;;;;;;;3.83;2.70;;;;;;;;;;5100996;28;20210;-64
2021/08/26 03:00:22;;;;;;;3.97;2.77;;;;;;;;;;5100867;28;20206;-64
2021/08/26 03:02:50;;;;;;;3.07;2.50;;;;;;;;;;5100816;28;20201;-64
2021/08/26 03:05:19;;;;;;;4.80;2.93;;;;;;;;;;5100487;28;20229;-64
2021/08/26 03:07:47;;;;;;;3.40;2.33;;;;;;;;;;5100575;28;20202;-63
2021/08/26 03:10:16;;;;;;;4.07;2.50;;;;;;;;;;5100599;28;20233;-62
2021/08/26 03:12:44;;;;;;;7.17;2.37;;;;;;;;;;5100601;28;20226;-62
2021/08/26 03:15:12;;;;;;;2.53;2.33;;;;;;;;;;5100548;28;20235;-63
2021/08/26 03:17:40;;;;;;;2.97;2.50;;;;;;;;;;5100551;28;20201;-62
2021/08/26 03:20:09;;;;;;;4.97;2.80;;;;;;;;;;5100141;28;20284;-62
2021/08/26 03:22:37;;;;;;;2.90;2.57;;;;;;;;;;5100169;28;20230;-63
2021/08/26 03:25:05;;;;;;;7.13;2.80;;;;;;;;;;5104429;28;20231;-62
2021/08/26 03:27:35;;;;;;;2.97;2.60;;;;;;;;;;5100560;28;20293;-62
2021/08/26 03:30:03;;;;;;;2.80;2.60;;;;;;;;;;5108595;28;20198;-63
2021/08/26 03:32:31;;;;;;;2.90;2.60;;;;;;;;;;5103974;28;20221;-62
2021/08/26 03:34:59;;;;;;;3.53;2.93;;;;;;;;;;5116545;28;20231;-64
2021/08/26 03:37:27;;;;;;;2.93;2.63;;;;;;;;;;5118115;28;20204;-64
2021/08/26 03:39:55;;;;;;;4.87;2.87;;;;;;;;;;5111863;28;20545;-64
2021/08/26 03:42:23;;;;;;;2.93;2.73;;;;;;;;;;5120437;28;20209;-64
2021/08/26 03:44:53;;;;;;;2.70;2.50;;;;;;;;;;5120516;28;20232;-64
2021/08/26 03:47:20;;;;;;;3.03;2.67;;;;;;;;;;5120370;28;20209;-64
2021/08/26 03:49:48;;;;;;;4.00;3.07;;;;;;;;;;5120261;28;20209;-64
2021/08/26 03:52:16;;;;;;;2.60;2.40;;;;;;;;;;5103056;27;20209;-64
2021/08/26 03:54:44;;;;;;;4.70;2.40;;;;;;;;;;5099517;28;20696;-62
2021/08/26 03:57:12;;;;;;;4.53;2.90;;;;;;;;;;5099770;28;20201;-64
2021/08/26 03:59:40;;;;;;;3.00;2.50;;;;;;;;;;5099884;28;20205;-64
2021/08/26 04:02:09;;;;;;;5.77;2.93;;;;;;;;;;5099569;28;20201;-65
2021/08/26 04:04:38;;;;;;;2.87;2.53;;;;;;;;;;5099576;28;20309;-64
2021/08/26 04:07:06;;;;;;;3.53;2.63;;;;;;;;;;5099378;28;20603;-65
2021/08/26 04:09:33;;;;;;;3.73;2.80;;;;;;;;;;5099463;28;20227;-64
2021/08/26 04:12:01;;;;;;;3.10;2.83;;;;;;;;;;5099278;28;20637;-65
2021/08/26 04:14:29;;;;;;;4.53;2.70;;;;;;;;;;5099288;28;20785;-64
2021/08/26 04:16:57;;;;;;;6.43;2.77;;;;;;;;;;5098960;28;20210;-64
2021/08/26 04:19:27;;;;;;;3.03;2.77;;;;;;;;;;5099295;28;20206;-64
2021/08/26 04:21:55;;;;;;;3.10;2.80;;;;;;;;;;5098897;28;20284;-63
2021/08/26 04:24:22;;;;;;;3.57;2.87;;;;;;;;;;5102951;28;20217;-63
2021/08/26 04:26:50;;;;;;;3.03;2.70;;;;;;;;;;5119742;28;20219;-63
2021/08/26 04:29:18;;;;;;;2.83;2.60;;;;;;;;;;5119665;27;20201;-63
2021/08/26 04:31:46;;;;;;;2.60;2.40;;;;;;;;;;5119238;27;20211;-63
2021/08/26 04:34:14;;;;;;;2.87;2.67;;;;;;;;;;5118864;28;20229;-63
2021/08/26 04:36:44;;;;;;;2.67;2.47;;;;;;;;;;5119541;28;20719;-63
2021/08/26 04:39:12;;;;;;;3.80;2.70;;;;;;;;;;5118976;28;20205;-63
2021/08/26 04:41:40;;;;;;;3.20;2.77;;;;;;;;;;5119199;28;20205;-62
2021/08/26 04:44:08;;;;;;;3.07;2.77;;;;;;;;;;5119272;28;20231;-63
2021/08/26 04:46:38;;;;;;;3.67;3.37;;;;;;;;;;5119274;28;20204;-63
2021/08/26 04:49:06;;;;;;;2.83;2.63;;;;;;;;;;5118651;28;20232;-63
2021/08/26 04:51:34;;;;;;;2.77;2.57;;;;;;;;;;5105755;28;20205;-63
2021/08/26 04:54:03;;;;;;;3.53;2.97;;;;;;;;;;5098679;28;20229;-63
2021/08/26 04:56:31;;;;;;;3.23;3.00;;;;;;;;;;5098508;28;20677;-63
2021/08/26 04:58:59;;;;;;;3.30;3.00;;;;;;;;;;5098684;28;20209;-63
2021/08/26 05:01:27;;;;;;;3.10;2.90;;;;;;;;;;5098287;28;20246;-63
2021/08/26 05:03:56;;;;;;;3.20;2.90;;;;;;;;;;5098012;28;20586;-63
2021/08/26 05:06:24;;;;;;;3.43;3.07;;;;;;;;;;5098334;28;20288;-63
2021/08/26 05:08:51;;;;;;;3.00;2.70;;;;;;;;;;5098295;28;20637;-63
2021/08/26 05:11:21;;;;;;;4.37;3.13;;;;;;;;;;5098143;28;20205;-63
2021/08/26 05:13:49;;;;;;;4.53;2.80;;;;;;;;;;5098412;28;20237;-63
2021/08/26 05:16:17;;;;;;;4.40;3.33;;;;;;;;;;5098275;28;20216;-63
2021/08/26 05:18:45;;;;;;;3.20;2.90;;;;;;;;;;5098036;28;20213;-63
2021/08/26 05:21:13;;;;;;;3.27;2.97;;;;;;;;;;5097982;28;20234;-63
2021/08/26 05:23:41;;;;;;;3.20;2.90;;;;;;;;;;5098290;28;20205;-63
2021/08/26 05:26:12;;;;;;;3.33;3.03;;;;;;;;;;5099649;28;20212;-63
2021/08/26 05:28:41;;;;;;;5.87;3.00;;;;;;;;;;5098027;28;20215;-63
2021/08/26 05:31:09;;;;;;;3.10;2.87;;;;;;;;;;5116939;28;20201;-63
2021/08/26 05:33:37;;;;;;;3.90;3.20;;;;;;;;;;5118206;28;20228;-63
2021/08/26 05:36:05;;;;;;;3.33;3.03;;;;;;;;;;5118416;28;20211;-63
2021/08/26 05:38:33;;;;;;;4.13;3.30;;;;;;;;;;5118436;28;20205;-63
2021/08/26 05:41:01;;;;;;;3.73;3.20;;;;;;;;;;5118441;28;20292;-63
2021/08/26 05:43:31;;;;;;;4.53;3.23;;;;;;;;;;5118194;28;20201;-63
2021/08/26 05:46:00;;;;;;;4.37;3.17;;;;;;;;;;5118184;28;20211;-63
2021/08/26 05:48:30;;;;;;;4.20;3.27;;;;;;;;;;5118159;28;20200;-63
2021/08/26 05:50:57;;;;;;;2.97;2.70;;;;;;;;;;5109805;28;20217;-62
2021/08/26 05:53:26;;;;;;;3.43;3.13;;;;;;;;;;5097674;28;20274;-62
2021/08/26 05:55:53;;;;;;;3.83;3.17;;;;;;;;;;5097932;28;20212;-61
2021/08/26 05:58:21;;;;;;;3.03;2.80;;;;;;;;;;5097811;28;20296;-63
2021/08/26 06:00:49;;;;;;;4.20;3.27;;;;;;;;;;5100753;28;20210;-62
2021/08/26 06:03:19;;;;;;;4.90;3.40;;;;;;;;;;5101782;28;20218;-63
2021/08/26 06:05:47;;;;;;;3.27;3.07;;;;;;;;;;5101641;28;20596;-63
2021/08/26 06:08:15;;;;;;;4.33;2.43;;;;;;;;;;5101910;28;20207;-63
2021/08/26 06:10:43;;;;;;;3.50;3.00;;;;;;;;;;5102087;28;20205;-60
2021/08/26 06:13:11;;;;;;;4.33;3.37;;;;;;;;;;5101795;28;20209;-61
2021/08/26 06:15:39;;;;;;;3.67;3.33;;;;;;;;;;5101572;28;20317;-61
2021/08/26 06:18:07;;;;;;;3.13;2.73;;;;;;;;;;5101307;28;20258;-62
2021/08/26 06:20:39;;;;;;;3.70;3.33;;;;;;;;;;5101296;28;20205;-60
2021/08/26 06:23:07;;;;;;;5.17;3.40;;;;;;;;;;5101213;28;20237;-62
2021/08/26 06:25:35;;;;;;;4.33;3.53;;;;;;;;;;5102784;28;20217;-63
2021/08/26 06:28:03;;;;;;;4.30;3.73;;;;;;;;;;5101407;28;20243;-62
2021/08/26 06:30:31;;;;;;;4.00;3.60;;;;;;;;;;5115083;28;20197;-63
2021/08/26 06:32:59;;;;;;;3.40;3.10;;;;;;;;;;5121837;28;20207;-63
2021/08/26 06:35:27;;;;;;;4.10;3.17;;;;;;;;;;5121575;28;20228;-63
2021/08/26 06:37:56;;;;;;;3.23;2.93;;;;;;;;;;5121714;28;20208;-62
2021/08/26 06:40:24;;;;;;;5.90;3.43;;;;;;;;;;5121657;28;20219;-63
2021/08/26 06:42:52;;;;;;;5.60;3.20;;;;;;;;;;5121740;28;20205;-63
2021/08/26 06:45:20;;;;;;;4.03;3.50;;;;;;;;;;5118404;28;20220;-63
2021/08/26 06:47:48;;;;;;;5.10;3.97;;;;;;;;;;5121115;28;20208;-63
2021/08/26 06:50:16;;;;;;;4.60;3.43;;;;;;;;;;5118164;28;20617;-62
2021/08/26 06:52:44;;;;;;;4.73;3.20;;;;;;;;;;5119501;28;20203;-62
2021/08/26 06:55:13;;;;;;;3.50;3.17;;;;;;;;;;5121058;28;20223;-63
2021/08/26 06:57:41;;;;;;;4.50;3.27;;;;;;;;;;5120795;27;20288;-63
2021/08/26 07:00:10;;;;;;;3.50;3.20;;;;;;;;;;5121100;28;20197;-63
2021/08/26 07:02:38;;;;;;;3.60;3.00;;;;;;;;;;5120858;27;20212;-63
2021/08/26 07:05:06;;;;;;;5.17;2.93;;;;;;;;;;5116462;28;20613;-63
2021/08/26 07:07:35;;;;;;;4.13;3.07;;;;;;;;;;5120920;28;20204;-62
2021/08/26 07:10:04;;;;;;;7.00;3.37;;;;;;;;;;5120514;28;20213;-63
2021/08/26 07:12:33;;;;;;;11.40;3.63;;;;;;;;;;5120870;28;20231;-62
2021/08/26 07:15:01;;;;;;;5.27;3.50;;;;;;;;;;5120698;28;20232;-62
2021/08/26 07:17:29;;;;;;;3.50;3.20;;;;;;;;;;5120617;28;20685;-62
2021/08/26 07:19:57;;;;;;;3.67;3.37;;;;;;;;;;5120800;28;20208;-62
2021/08/26 07:22:25;;;;;;;4.93;3.30;;;;;;;;;;5120661;28;20236;-62
2021/08/26 07:24:53;;;;;;;3.53;3.23;;;;;;;;;;5113623;28;20229;-63
2021/08/26 07:27:21;;;;;;;4.30;3.93;;;;;;;;;;5100328;28;20292;-62
2021/08/26 07:29:50;;;;;;;4.80;3.50;;;;;;;;;;5107627;28;20200;-62
2021/08/26 07:32:19;;;;;;;5.03;3.20;;;;;;;;;;5120720;28;20208;-62
2021/08/26 07:34:48;;;;;;;5.07;3.47;;;;;;;;;;5120193;28;20232;-63
2021/08/26 07:37:15;;;;;;;7.17;3.57;;;;;;;;;;5120716;28;20205;-63
2021/08/26 07:39:44;;;;;;;3.37;3.07;;;;;;;;;;5120731;28;20288;-63
2021/08/26 07:42:12;;;;;;;4.63;3.50;;;;;;;;;;5120287;27;20235;-63
2021/08/26 07:44:40;;;;;;;3.63;3.00;;;;;;;;;;5120479;28;20227;-62
2021/08/26 07:47:09;;;;;;;5.20;2.93;;;;;;;;;;5120427;28;20204;-63
2021/08/26 07:49:37;;;;;;;5.97;3.80;;;;;;;;;;5120191;28;20233;-60
2021/08/26 07:52:06;;;;;;;8.60;3.93;;;;;;;;;;5102351;27;20201;-62
2021/08/26 07:54:34;;;;;;;5.60;3.40;;;;;;;;;;5099923;28;20235;-62
2021/08/26 07:57:01;;;;;;;3.87;3.10;;;;;;;;;;5099617;28;20210;-62
2021/08/26 07:59:29;;;;;;;5.77;3.10;;;;;;;;;;5099550;28;20205;-62
2021/08/26 08:01:57;;;;;;;5.53;3.13;;;;;;;;;;5099505;28;20205;-63
2021/08/26 08:04:27;;;;;;;5.97;3.30;;;;;;;;;;5099410;28;20316;-63
2021/08/26 08:06:55;;;;;;;3.97;3.50;;;;;;;;;;5099356;28;20202;-63
2021/08/26 08:09:23;;;;;;;3.50;3.20;;;;;;;;;;5099215;28;20677;-63
2021/08/26 08:11:51;;;;;;;7.67;3.90;;;;;;;;;;5106324;28;20211;-63
2021/08/26 08:14:19;;;;;;;4.47;3.10;;;;;;;;;;5119393;28;20371;-63
2021/08/26 08:16:47;;;;;;;3.43;3.13;;;;;;;;;;5119344;28;20224;-63
2021/08/26 08:19:15;;;;;;;3.73;3.37;;;;;;;;;;5119610;28;20208;-61
2021/08/26 08:21:44;;;;;;;7.00;3.50;;;;;;;;;;5118875;28;20316;-61
2021/08/26 08:24:12;;;;;;;3.73;3.10;;;;;;;;;;5117597;28;20224;-61
2021/08/26 08:26:40;;;;;;;4.07;3.57;;;;;;;;;;5099272;28;20211;-61
2021/08/26 08:29:08;;;;;;;5.60;3.67;;;;;;;;;;5100854;28;20218;-62
2021/08/26 08:31:36;;;;;;;3.90;3.20;;;;;;;;;;5119395;28;20215;-62
2021/08/26 08:34:04;;;;;;;4.33;3.40;;;;;;;;;;5119047;28;20265;-62
2021/08/26 08:36:32;;;;;;;4.13;3.70;;;;;;;;;;5119423;28;20231;-61
2021/08/26 08:39:01;;;;;;;6.13;3.60;;;;;;;;;;5119277;28;20205;-61
2021/08/26 08:41:30;;;;;;;7.37;3.63;;;;;;;;;;5118974;28;20209;-61
2021/08/26 08:43:59;;;;;;;6.37;3.10;;;;;;;;;;5118683;28;20704;-61
2021/08/26 08:46:28;;;;;;;5.60;3.67;;;;;;;;;;5119021;28;20207;-61
2021/08/26 08:48:57;;;;;;;8.77;3.30;;;;;;;;;;5118588;28;20214;-62
2021/08/26 08:51:25;;;;;;;6.00;3.47;;;;;;;;;;5107267;28;20210;-61
2021/08/26 08:53:53;;;;;;;5.33;3.03;;;;;;;;;;5098690;28;20288;-61
2021/08/26 08:56:26;;;;;;;5.40;3.20;;;;;;;;;;5098124;28;20230;-61
2021/08/26 08:58:56;;;;;;;3.67;3.37;;;;;;;;;;5105629;28;20202;-62
2021/08/26 09:01:24;;;;;;;3.27;2.93;;;;;;;;;;5118705;28;20207;-61
2021/08/26 09:03:53;;;;;;;4.17;3.10;;;;;;;;;;5118459;28;20695;-61
2021/08/26 09:06:21;;;;;;;4.43;3.70;;;;;;;;;;5118622;28;20680;-62
2021/08/26 09:09:01;;;;;;;6.93;3.43;;;;;;;;;;5118805;28;20200;-61
2021/08/26 09:11:30;;;;;;;4.33;2.70;;;;;;;;;;5118810;28;20241;-62
2021/08/26 09:14:07;;;;;;;3.60;3.10;;;;;;;;;;5118754;28;20231;-62
2021/08/26 09:16:36;;;;;;;7.40;3.60;;;;;;;;;;5118445;28;20257;-62
2021/08/26 09:19:17;;;;;;;3.93;3.27;;;;;;;;;;5118182;28;20277;-62
2021/08/26 09:21:46;;;;;;;3.40;2.93;;;;;;;;;;5118444;28;20242;-61
2021/08/26 09:24:14;;;;;;;4.63;3.63;;;;;;;;;;5116260;28;20619;-62
2021/08/26 09:26:46;;;;;;;4.53;3.33;;;;;;;;;;5098277;28;20200;-62
2021/08/26 09:29:14;;;;;;;3.97;3.37;;;;;;;;;;5100775;28;20212;-62
2021/08/26 09:31:44;;;;;;;3.97;3.27;;;;;;;;;;5118183;28;20296;-62
2021/08/26 09:34:12;;;;;;;3.60;3.03;;;;;;;;;;5118003;28;20228;-62
2021/08/26 09:36:52;;;;;;;2.70;2.50;;;;;;;;;;5118315;28;20287;-61
2021/08/26 09:39:20;;;;;;;4.33;2.80;;;;;;;;;;5118125;28;20210;-62
2021/08/26 09:41:50;;;;;;;3.60;2.87;;;;;;;;;;5118024;28;20204;-62
2021/08/26 09:44:19;;;;;;;4.63;2.60;;;;;;;;;;5117919;28;20588;-61
2021/08/26 09:46:48;;;;;;;3.93;2.70;;;;;;;;;;5118083;28;20205;-61
2021/08/26 09:49:17;;;;;;;3.03;2.47;;;;;;;;;;5118045;28;20209;-63
2021/08/26 09:51:46;;;;;;;4.13;2.93;;;;;;;;;;5102997;28;20210;-63
2021/08/26 09:54:31;;;;;;;6.27;3.27;;;;;;;;;;5097706;28;20226;-64
2021/08/26 09:57:01;;;;;;;3.83;3.43;;;;;;;;;;5097426;28;20588;-64
2021/08/26 09:59:45;;;;;;;5.40;3.07;;;;;;;;;;5097737;28;20211;-61
2021/08/26 10:02:13;;;;;;;4.03;2.83;;;;;;;;;;5105357;28;20204;-62
2021/08/26 10:04:42;;;;;;;4.33;3.03;;;;;;;;;;5117552;28;20228;-64
2021/08/26 10:07:10;;;;;;;4.50;3.40;;;;;;;;;;5117994;28;20202;-60
2021/08/26 10:09:40;;;;;;;6.17;3.37;;;;;;;;;;5117866;28;20292;-63
2021/08/26 10:12:12;;;;;;;6.47;3.50;;;;;;;;;;5118015;28;20204;-63
2021/08/26 10:14:40;;;;;;;3.50;3.20;;;;;;;;;;5118059;28;20229;-63
2021/08/26 10:17:08;;;;;;;4.73;3.63;;;;;;;;;;5117789;28;20230;-63
2021/08/26 10:19:36;;;;;;;4.17;2.80;;;;;;;;;;5117533;28;20203;-63
2021/08/26 10:22:05;;;;;;;6.30;4.03;;;;;;;;;;5117556;28;20318;-63
2021/08/26 10:24:37;;;;;;;5.67;3.43;;;;;;;;;;5111871;28;20233;-63
2021/08/26 10:27:06;;;;;;;5.10;3.50;;;;;;;;;;5097564;28;20294;-63
2021/08/26 10:29:38;;;;;;;5.67;3.60;;;;;;;;;;5102713;28;20594;-61
2021/08/26 10:32:07;;;;;;;5.40;3.53;;;;;;;;;;5117717;28;20212;-61
2021/08/26 10:34:34;;;;;;;7.07;4.07;;;;;;;;;;5117134;28;20565;-61
2021/08/26 10:37:20;;;;;;;3.87;3.57;;;;;;;;;;5117701;28;20232;-61
2021/08/26 10:39:49;;;;;;;5.47;4.23;;;;;;;;;;5117597;28;20719;-60
2021/08/26 10:42:36;;;;;;;4.70;3.53;;;;;;;;;;5117226;28;20206;-61
2021/08/26 10:45:07;;;;;;;4.90;3.50;;;;;;;;;;5117726;28;20390;-61
2021/08/26 10:47:55;;;;;;;4.07;3.43;;;;;;;;;;5121477;28;20214;-60
2021/08/26 10:50:25;;;;;;;4.07;3.47;;;;;;;;;;5117725;28;20207;-61
2021/08/26 10:52:56;;;;;;;5.97;3.60;;;;;;;;;;5100685;28;20221;-61
2021/08/26 10:55:28;;;;;;;4.07;3.67;;;;;;;;;;5100809;28;20236;-61
2021/08/26 10:57:56;;;;;;;6.07;3.97;;;;;;;;;;5100625;28;20229;-61
2021/08/26 11:00:48;;;;;;;4.07;3.40;;;;;;;;;;5100505;28;20212;-61
2021/08/26 11:03:46;;;;;;;4.47;3.80;;;;;;;;;;5089897;28;20272;-60
2021/08/26 11:06:33;;;;;;;4.77;3.87;;;;;;;;;;5100626;28;20292;-61
2021/08/26 11:09:15;;;;;;;4.03;3.27;;;;;;;;;;5100299;28;20206;-63
2021/08/26 11:11:47;;;;;;;4.93;3.17;;;;;;;;;;5100079;28;20216;-63
2021/08/26 11:14:26;;;;;;;3.77;3.33;;;;;;;;;;5100399;28;20232;-62
2021/08/26 11:16:55;;;;;;;4.27;3.40;;;;;;;;;;5100364;28;20221;-63
2021/08/26 11:19:28;;;;;;;3.80;3.30;;;;;;;;;;5100045;28;20568;-61
2021/08/26 11:22:01;;;;;;;5.30;3.20;;;;;;;;;;5100291;28;20240;-62
2021/08/26 11:24:53;;;;;;;4.00;3.50;;;;;;;;;;5100887;28;20310;-63
2021/08/26 11:27:26;;;;;;;6.70;3.30;;;;;;;;;;5089598;28;20338;-63
2021/08/26 11:29:54;;;;;;;7.50;3.70;;;;;;;;;;5108300;28;20649;-63
2021/08/26 11:32:24;;;;;;;8.13;3.13;;;;;;;;;;5120473;28;20235;-62
2021/08/26 11:34:55;;;;;;;3.90;2.73;;;;;;;;;;5120250;28;20261;-63
2021/08/26 11:37:24;;;;;;;4.87;3.10;;;;;;;;;;5120251;28;20738;-63
2021/08/26 11:39:53;;;;;;;3.83;3.40;;;;;;;;;;5120754;28;20290;-62
2021/08/26 11:42:29;;;;;;;5.40;3.33;;;;;;;;;;5120459;28;20272;-61
2021/08/26 11:45:14;;;;;;;3.63;3.33;;;;;;;;;;5120017;27;20625;-61
2021/08/26 11:47:43;;;;;;;4.80;3.17;;;;;;;;;;5120290;27;20208;-61
2021/08/26 11:50:17;;;;;;;4.97;3.43;;;;;;;;;;5117568;28;20204;-60
2021/08/26 11:52:45;;;;;;;4.87;3.43;;;;;;;;;;5099931;28;20205;-61
2021/08/26 11:55:31;;;;;;;4.30;3.43;;;;;;;;;;5099784;28;20264;-60
2021/08/26 11:58:00;;;;;;;3.80;2.80;;;;;;;;;;5098373;28;20256;-63
2021/08/26 12:00:28;;;;;;;3.73;3.10;;;;;;;;;;5099681;28;20290;-63
2021/08/26 12:02:57;;;;;;;5.03;3.50;;;;;;;;;;5099211;28;20687;-63
2021/08/26 12:05:27;;;;;;;3.53;3.17;;;;;;;;;;5099273;28;20289;-62
2021/08/26 12:07:56;;;;;;;5.27;3.50;;;;;;;;;;5099394;28;20290;-62
2021/08/26 12:10:25;;;;;;;3.50;3.20;;;;;;;;;;5099648;28;20205;-62
2021/08/26 12:12:55;;;;;;;5.37;3.57;;;;;;;;;;5099398;28;20214;-63
2021/08/26 12:15:25;;;;;;;3.17;2.87;;;;;;;;;;5099416;28;20236;-63
2021/08/26 12:17:54;;;;;;;4.40;3.33;;;;;;;;;;5099116;28;20232;-63
2021/08/26 12:20:22;;;;;;;3.00;2.70;;;;;;;;;;5099311;28;20207;-63
2021/08/26 12:22:51;;;;;;;5.30;3.03;;;;;;;;;;5098836;28;20243;-62
2021/08/26 12:25:21;;;;;;;3.27;2.97;;;;;;;;;;5101012;28;20262;-62
2021/08/26 12:27:50;;;;;;;4.00;3.07;;;;;;;;;;5098782;28;20299;-62
2021/08/26 12:30:34;;;;;;;5.57;2.80;;;;;;;;;;5111021;27;20203;-62
2021/08/26 12:33:06;;;;;;;4.13;3.10;;;;;;;;;;5119020;28;20209;-62
2021/08/26 12:35:39;;;;;;;4.17;3.20;;;;;;;;;;5119409;28;20240;-63
2021/08/26 12:38:10;;;;;;;5.03;3.17;;;;;;;;;;5118950;28;20320;-63
2021/08/26 12:40:50;;;;;;;4.17;3.37;;;;;;;;;;5119393;28;20212;-63
2021/08/26 12:43:18;;;;;;;3.63;3.23;;;;;;;;;;5119410;28;20210;-63
2021/08/26 12:45:46;;;;;;;4.63;2.90;;;;;;;;;;5119139;28;20221;-63
2021/08/26 12:48:24;;;;;;;3.80;3.07;;;;;;;;;;5118863;28;20611;-63
2021/08/26 12:51:08;;;;;;;3.07;2.60;;;;;;;;;;5111183;28;20218;-63
2021/08/26 12:53:37;;;;;;;5.17;3.00;;;;;;;;;;5098512;28;20207;-61
2021/08/26 12:56:06;;;;;;;6.27;3.23;;;;;;;;;;5098430;28;20205;-61
2021/08/26 12:58:35;;;;;;;5.83;3.30;;;;;;;;;;5098167;28;20222;-62
2021/08/26 13:01:16;;;;;;;3.40;3.10;;;;;;;;;;5098539;28;20226;-63
2021/08/26 13:03:45;;;;;;;4.10;2.90;;;;;;;;;;5098272;28;20239;-63
2021/08/26 13:06:13;;;;;;;3.10;2.80;;;;;;;;;;5098243;28;20709;-63
2021/08/26 13:08:45;;;;;;;3.90;3.10;;;;;;;;;;5098132;28;20202;-63
2021/08/26 13:11:14;;;;;;;2.70;2.50;;;;;;;;;;5098600;28;20243;-63
2021/08/26 13:13:52;;;;;;;5.40;3.03;;;;;;;;;;5098146;28;20359;-63
2021/08/26 13:16:20;;;;;;;3.80;2.90;;;;;;;;;;5098075;28;20202;-61
2021/08/26 13:18:48;;;;;;;5.63;3.47;;;;;;;;;;5097958;28;20228;-63
2021/08/26 13:21:16;;;;;;;4.13;3.13;;;;;;;;;;5098015;28;20209;-61
2021/08/26 13:23:46;;;;;;;3.97;3.27;;;;;;;;;;5097904;28;20349;-63
2021/08/26 13:26:14;;;;;;;5.03;3.20;;;;;;;;;;5099594;28;20215;-63
2021/08/26 13:28:42;;;;;;;3.53;3.17;;;;;;;;;;5097821;28;20211;-61
2021/08/26 13:31:10;;;;;;;3.73;3.13;;;;;;;;;;5098015;28;20207;-61
2021/08/26 13:33:38;;;;;;;3.83;3.33;;;;;;;;;;5097844;28;20708;-61
2021/08/26 13:36:06;;;;;;;3.77;3.03;;;;;;;;;;5097680;28;20571;-61
2021/08/26 13:38:34;;;;;;;3.93;3.07;;;;;;;;;;5097594;28;20226;-60
2021/08/26 13:41:04;;;;;;;3.77;3.20;;;;;;;;;;5097824;28;20294;-63
2021/08/26 13:43:31;;;;;;;4.37;3.37;;;;;;;;;;5097745;28;20208;-61
2021/08/26 13:45:59;;;;;;;6.60;3.77;;;;;;;;;;5097908;28;20239;-62
2021/08/26 13:48:28;;;;;;;4.30;3.63;;;;;;;;;;5097514;28;20242;-63
2021/08/26 13:50:55;;;;;;;4.13;3.43;;;;;;;;;;5106666;28;20211;-63
2021/08/26 13:53:23;;;;;;;5.17;3.07;;;;;;;;;;5097651;28;20212;-63
2021/08/26 13:55:51;;;;;;;3.80;3.33;;;;;;;;;;5097913;28;20213;-63
2021/08/26 13:58:21;;;;;;;3.20;2.90;;;;;;;;;;5097755;28;20689;-63
2021/08/26 14:00:49;;;;;;;6.27;3.47;;;;;;;;;;5097650;28;20247;-63
2021/08/26 14:03:17;;;;;;;3.73;3.33;;;;;;;;;;5097392;28;20212;-63
2021/08/26 14:05:45;;;;;;;4.33;3.00;;;;;;;;;;5097694;28;20262;-63
2021/08/26 14:08:13;;;;;;;6.73;3.93;;;;;;;;;;5097696;28;20203;-63
2021/08/26 14:10:41;;;;;;;3.37;3.17;;;;;;;;;;5097307;28;20248;-63
2021/08/26 14:13:08;;;;;;;3.33;3.03;;;;;;;;;;5097717;28;20209;-63
2021/08/26 14:15:38;;;;;;;7.13;3.50;;;;;;;;;;5097780;28;20235;-63
2021/08/26 14:18:06;;;;;;;3.60;3.30;;;;;;;;;;5096840;28;20550;-63
2021/08/26 14:20:34;;;;;;;3.47;2.77;;;;;;;;;;5098790;28;20207;-63
2021/08/26 14:23:02;;;;;;;4.07;3.10;;;;;;;;;;5101169;28;20245;-63
2021/08/26 14:25:34;;;;;;;3.67;3.27;;;;;;;;;;5102321;28;20217;-63
2021/08/26 14:28:02;;;;;;;3.40;3.10;;;;;;;;;;5108620;28;20282;-63
2021/08/26 14:30:30;;;;;;;6.13;3.23;;;;;;;;;;5121913;28;20233;-62
2021/08/26 14:32:59;;;;;;;4.33;3.30;;;;;;;;;;5121624;28;20209;-63
2021/08/26 14:35:27;;;;;;;6.47;3.40;;;;;;;;;;5121715;28;20227;-63
2021/08/26 14:37:55;;;;;;;5.43;3.50;;;;;;;;;;5121756;28;20258;-62
2021/08/26 14:40:23;;;;;;;4.10;3.17;;;;;;;;;;5121730;28;20207;-63
2021/08/26 14:42:51;;;;;;;3.83;3.10;;;;;;;;;;5121763;28;20330;-63
2021/08/26 14:45:19;;;;;;;4.10;3.20;;;;;;;;;;5121441;28;20722;-63
2021/08/26 14:47:47;;;;;;;3.30;3.00;;;;;;;;;;5121413;28;20201;-63
2021/08/26 14:50:17;;;;;;;4.50;3.07;;;;;;;;;;5120068;28;20201;-63
2021/08/26 14:52:45;;;;;;;4.63;3.33;;;;;;;;;;5101147;28;20204;-63
2021/08/26 14:55:13;;;;;;;4.20;2.83;;;;;;;;;;5100672;28;20233;-63
2021/08/26 14:57:41;;;;;;;5.13;3.20;;;;;;;;;;5100622;28;20212;-63
2021/08/26 15:00:09;;;;;;;4.20;3.10;;;;;;;;;;5100632;28;20237;-63
2021/08/26 15:02:37;;;;;;;3.47;3.17;;;;;;;;;;5100719;28;20209;-63